sensor_id;sensor_type;location;lat;lon;timestamp;P1;durP1;ratioP1;P2;durP2;ratioP2
30874;SDS011;17581;43.222;27.924;2022-08-07T00:01:39;17.88;;;14.13;;
30874;SDS011;17581;43.222;27.924;2022-08-07T00:04:05;18.98;;;15.10;;
30874;SDS011;17581;43.222;27.924;2022-08-07T00:06:32;23.80;;;14.10;;
30874;SDS011;17581;43.222;27.924;2022-08-07T00:08:57;28.40;;;15.10;;
30874;SDS011;17581;43.222;27.924;2022-08-07T00:11:23;20.85;;;14.40;;
30874;SDS011;17581;43.222;27.924;2022-08-07T00:13:48;17.55;;;14.27;;
30874;SDS011;17581;43.222;27.924;2022-08-07T00:16:14;18.95;;;14.57;;
30874;SDS011;17581;43.222;27.924;2022-08-07T00:18:39;15.88;;;14.18;;
30874;SDS011;17581;43.222;27.924;2022-08-07T00:21:06;19.73;;;16.38;;
30874;SDS011;17581;43.222;27.924;2022-08-07T00:23:33;23.30;;;14.75;;
30874;SDS011;17581;43.222;27.924;2022-08-07T00:26:00;17.45;;;13.90;;
30874;SDS011;17581;43.222;27.924;2022-08-07T00:28:30;22.13;;;15.20;;
30874;SDS011;17581;43.222;27.924;2022-08-07T00:30:56;18.38;;;14.73;;
30874;SDS011;17581;43.222;27.924;2022-08-07T00:33:22;17.48;;;15.60;;
30874;SDS011;17581;43.222;27.924;2022-08-07T00:35:52;19.65;;;16.02;;
30874;SDS011;17581;43.222;27.924;2022-08-07T00:38:19;21.85;;;16.23;;
30874;SDS011;17581;43.222;27.924;2022-08-07T00:40:44;20.60;;;16.10;;
30874;SDS011;17581;43.222;27.924;2022-08-07T00:43:10;23.70;;;16.08;;
30874;SDS011;17581;43.222;27.924;2022-08-07T00:45:37;20.70;;;16.13;;
30874;SDS011;17581;43.222;27.924;2022-08-07T00:48:04;19.83;;;14.95;;
30874;SDS011;17581;43.222;27.924;2022-08-07T00:50:30;20.90;;;15.30;;
30874;SDS011;17581;43.222;27.924;2022-08-07T00:52:55;19.45;;;16.63;;
30874;SDS011;17581;43.222;27.924;2022-08-07T00:55:21;22.95;;;16.33;;
30874;SDS011;17581;43.222;27.924;2022-08-07T00:57:47;23.55;;;17.73;;
30874;SDS011;17581;43.222;27.924;2022-08-07T01:00:13;20.27;;;17.40;;
30874;SDS011;17581;43.222;27.924;2022-08-07T01:02:39;20.20;;;17.55;;
30874;SDS011;17581;43.222;27.924;2022-08-07T01:05:07;26.05;;;17.15;;
30874;SDS011;17581;43.222;27.924;2022-08-07T01:07:34;19.08;;;16.27;;
30874;SDS011;17581;43.222;27.924;2022-08-07T01:10:00;28.50;;;18.45;;
30874;SDS011;17581;43.222;27.924;2022-08-07T01:12:25;21.15;;;17.65;;
30874;SDS011;17581;43.222;27.924;2022-08-07T01:14:51;23.80;;;18.00;;
30874;SDS011;17581;43.222;27.924;2022-08-07T01:17:17;27.60;;;18.92;;
30874;SDS011;17581;43.222;27.924;2022-08-07T01:19:42;21.65;;;16.80;;
30874;SDS011;17581;43.222;27.924;2022-08-07T01:22:09;20.70;;;17.70;;
30874;SDS011;17581;43.222;27.924;2022-08-07T01:24:35;25.17;;;17.67;;
30874;SDS011;17581;43.222;27.924;2022-08-07T01:27:01;31.88;;;18.25;;
30874;SDS011;17581;43.222;27.924;2022-08-07T01:29:27;19.35;;;16.83;;
30874;SDS011;17581;43.222;27.924;2022-08-07T01:31:54;24.35;;;17.15;;
30874;SDS011;17581;43.222;27.924;2022-08-07T01:34:20;26.50;;;17.45;;
30874;SDS011;17581;43.222;27.924;2022-08-07T01:36:46;22.63;;;17.33;;
30874;SDS011;17581;43.222;27.924;2022-08-07T01:39:12;29.15;;;18.20;;
30874;SDS011;17581;43.222;27.924;2022-08-07T01:41:38;21.20;;;16.80;;
30874;SDS011;17581;43.222;27.924;2022-08-07T01:44:07;22.80;;;17.30;;
30874;SDS011;17581;43.222;27.924;2022-08-07T01:46:33;27.08;;;17.80;;
30874;SDS011;17581;43.222;27.924;2022-08-07T01:49:00;22.17;;;17.92;;
30874;SDS011;17581;43.222;27.924;2022-08-07T01:51:26;24.80;;;15.55;;
30874;SDS011;17581;43.222;27.924;2022-08-07T01:53:54;23.50;;;17.20;;
30874;SDS011;17581;43.222;27.924;2022-08-07T01:56:25;22.38;;;16.33;;
30874;SDS011;17581;43.222;27.924;2022-08-07T01:59:10;20.90;;;16.70;;
30874;SDS011;17581;43.222;27.924;2022-08-07T02:01:41;21.88;;;17.85;;
30874;SDS011;17581;43.222;27.924;2022-08-07T02:04:46;24.38;;;17.27;;
30874;SDS011;17581;43.222;27.924;2022-08-07T02:07:07;27.15;;;17.70;;
30874;SDS011;17581;43.222;27.924;2022-08-07T02:09:36;25.40;;;18.23;;
30874;SDS011;17581;43.222;27.924;2022-08-07T02:12:04;22.08;;;17.48;;
30874;SDS011;17581;43.222;27.924;2022-08-07T02:14:45;21.92;;;18.35;;
30874;SDS011;17581;43.222;27.924;2022-08-07T02:17:15;23.23;;;17.58;;
30874;SDS011;17581;43.222;27.924;2022-08-07T02:19:42;28.55;;;18.98;;
30874;SDS011;17581;43.222;27.924;2022-08-07T02:22:11;29.80;;;19.67;;
30874;SDS011;17581;43.222;27.924;2022-08-07T02:24:39;30.77;;;20.63;;
30874;SDS011;17581;43.222;27.924;2022-08-07T02:27:07;32.70;;;21.80;;
30874;SDS011;17581;43.222;27.924;2022-08-07T02:29:34;31.98;;;21.75;;
30874;SDS011;17581;43.222;27.924;2022-08-07T02:32:03;31.95;;;22.00;;
30874;SDS011;17581;43.222;27.924;2022-08-07T02:34:30;32.08;;;23.65;;
30874;SDS011;17581;43.222;27.924;2022-08-07T02:36:57;43.65;;;23.38;;
30874;SDS011;17581;43.222;27.924;2022-08-07T02:39:25;29.45;;;22.25;;
30874;SDS011;17581;43.222;27.924;2022-08-07T02:41:52;33.10;;;22.98;;
30874;SDS011;17581;43.222;27.924;2022-08-07T02:44:19;29.05;;;23.33;;
30874;SDS011;17581;43.222;27.924;2022-08-07T02:46:46;31.98;;;22.45;;
30874;SDS011;17581;43.222;27.924;2022-08-07T02:49:12;33.53;;;23.10;;
30874;SDS011;17581;43.222;27.924;2022-08-07T02:51:38;30.25;;;21.73;;
30874;SDS011;17581;43.222;27.924;2022-08-07T02:54:06;30.58;;;22.10;;
30874;SDS011;17581;43.222;27.924;2022-08-07T02:56:35;37.20;;;21.77;;
30874;SDS011;17581;43.222;27.924;2022-08-07T02:59:04;31.42;;;20.23;;
30874;SDS011;17581;43.222;27.924;2022-08-07T03:01:34;28.88;;;20.63;;
30874;SDS011;17581;43.222;27.924;2022-08-07T03:04:04;28.95;;;21.33;;
30874;SDS011;17581;43.222;27.924;2022-08-07T03:06:31;30.98;;;22.35;;
30874;SDS011;17581;43.222;27.924;2022-08-07T03:08:58;29.20;;;20.80;;
30874;SDS011;17581;43.222;27.924;2022-08-07T03:11:29;32.35;;;24.17;;
30874;SDS011;17581;43.222;27.924;2022-08-07T03:13:57;34.35;;;21.50;;
30874;SDS011;17581;43.222;27.924;2022-08-07T03:16:23;35.30;;;23.70;;
30874;SDS011;17581;43.222;27.924;2022-08-07T03:18:49;29.98;;;22.20;;
30874;SDS011;17581;43.222;27.924;2022-08-07T03:21:15;29.23;;;21.88;;
30874;SDS011;17581;43.222;27.924;2022-08-07T03:23:42;27.40;;;21.20;;
30874;SDS011;17581;43.222;27.924;2022-08-07T03:26:09;28.27;;;19.67;;
30874;SDS011;17581;43.222;27.924;2022-08-07T03:28:42;31.80;;;20.77;;
30874;SDS011;17581;43.222;27.924;2022-08-07T03:31:10;29.33;;;21.17;;
30874;SDS011;17581;43.222;27.924;2022-08-07T03:33:43;27.88;;;21.70;;
30874;SDS011;17581;43.222;27.924;2022-08-07T03:36:12;27.95;;;20.92;;
30874;SDS011;17581;43.222;27.924;2022-08-07T03:38:38;26.92;;;19.80;;
30874;SDS011;17581;43.222;27.924;2022-08-07T03:41:05;29.65;;;22.35;;
30874;SDS011;17581;43.222;27.924;2022-08-07T03:43:31;34.45;;;22.13;;
30874;SDS011;17581;43.222;27.924;2022-08-07T03:45:59;27.35;;;20.60;;
30874;SDS011;17581;43.222;27.924;2022-08-07T03:48:26;26.60;;;19.90;;
30874;SDS011;17581;43.222;27.924;2022-08-07T03:50:54;26.83;;;20.20;;
30874;SDS011;17581;43.222;27.924;2022-08-07T03:53:22;24.75;;;18.92;;
30874;SDS011;17581;43.222;27.924;2022-08-07T03:55:48;27.25;;;20.73;;
30874;SDS011;17581;43.222;27.924;2022-08-07T03:58:16;28.30;;;20.40;;
30874;SDS011;17581;43.222;27.924;2022-08-07T04:00:43;27.77;;;18.35;;
30874;SDS011;17581;43.222;27.924;2022-08-07T04:03:11;22.33;;;16.65;;
30874;SDS011;17581;43.222;27.924;2022-08-07T04:05:39;28.45;;;17.65;;
30874;SDS011;17581;43.222;27.924;2022-08-07T04:08:04;22.75;;;15.77;;
30874;SDS011;17581;43.222;27.924;2022-08-07T04:10:30;25.23;;;15.73;;
30874;SDS011;17581;43.222;27.924;2022-08-07T04:12:58;20.65;;;15.73;;
30874;SDS011;17581;43.222;27.924;2022-08-07T04:15:24;19.27;;;15.40;;
30874;SDS011;17581;43.222;27.924;2022-08-07T04:17:51;36.25;;;20.65;;
30874;SDS011;17581;43.222;27.924;2022-08-07T04:20:17;19.08;;;15.25;;
30874;SDS011;17581;43.222;27.924;2022-08-07T04:22:43;29.65;;;14.65;;
30874;SDS011;17581;43.222;27.924;2022-08-07T04:25:10;22.77;;;14.95;;
30874;SDS011;17581;43.222;27.924;2022-08-07T04:27:37;23.10;;;14.05;;
30874;SDS011;17581;43.222;27.924;2022-08-07T04:30:04;39.10;;;23.55;;
30874;SDS011;17581;43.222;27.924;2022-08-07T04:32:31;21.30;;;16.45;;
30874;SDS011;17581;43.222;27.924;2022-08-07T04:34:58;22.75;;;16.63;;
30874;SDS011;17581;43.222;27.924;2022-08-07T04:37:25;25.45;;;16.02;;
30874;SDS011;17581;43.222;27.924;2022-08-07T04:39:51;17.67;;;13.13;;
30874;SDS011;17581;43.222;27.924;2022-08-07T04:42:16;26.25;;;12.55;;
30874;SDS011;17581;43.222;27.924;2022-08-07T04:44:42;20.17;;;13.27;;
30874;SDS011;17581;43.222;27.924;2022-08-07T04:47:10;16.73;;;12.57;;
30874;SDS011;17581;43.222;27.924;2022-08-07T04:52:32;22.48;;;12.65;;
30874;SDS011;17581;43.222;27.924;2022-08-07T04:55:18;13.40;;;10.25;;
30874;SDS011;17581;43.222;27.924;2022-08-07T04:58:02;15.57;;;10.10;;
30874;SDS011;17581;43.222;27.924;2022-08-07T05:03:24;20.45;;;11.18;;
30874;SDS011;17581;43.222;27.924;2022-08-07T05:06:06;22.60;;;10.73;;
30874;SDS011;17581;43.222;27.924;2022-08-07T05:11:19;38.97;;;25.27;;
30874;SDS011;17581;43.222;27.924;2022-08-07T05:13:52;25.92;;;11.07;;
30874;SDS011;17581;43.222;27.924;2022-08-07T05:16:23;18.25;;;9.75;;
30874;SDS011;17581;43.222;27.924;2022-08-07T05:18:55;12.35;;;10.18;;
30874;SDS011;17581;43.222;27.924;2022-08-07T05:21:26;37.50;;;11.93;;
30874;SDS011;17581;43.222;27.924;2022-08-07T05:24:00;14.82;;;10.07;;
30874;SDS011;17581;43.222;27.924;2022-08-07T05:26:28;38.50;;;9.65;;
30874;SDS011;17581;43.222;27.924;2022-08-07T05:28:58;13.27;;;9.48;;
30874;SDS011;17581;43.222;27.924;2022-08-07T05:31:28;15.23;;;9.80;;
30874;SDS011;17581;43.222;27.924;2022-08-07T05:33:59;16.98;;;9.10;;
30874;SDS011;17581;43.222;27.924;2022-08-07T05:36:26;13.30;;;8.73;;
30874;SDS011;17581;43.222;27.924;2022-08-07T05:38:55;15.27;;;9.05;;
30874;SDS011;17581;43.222;27.924;2022-08-07T05:41:21;19.48;;;9.80;;
30874;SDS011;17581;43.222;27.924;2022-08-07T05:43:48;13.80;;;9.23;;
30874;SDS011;17581;43.222;27.924;2022-08-07T05:46:15;29.20;;;9.88;;
30874;SDS011;17581;43.222;27.924;2022-08-07T05:48:44;26.55;;;10.02;;
30874;SDS011;17581;43.222;27.924;2022-08-07T05:51:10;14.45;;;9.30;;
30874;SDS011;17581;43.222;27.924;2022-08-07T05:53:38;19.30;;;9.30;;
30874;SDS011;17581;43.222;27.924;2022-08-07T05:56:04;14.90;;;9.68;;
30874;SDS011;17581;43.222;27.924;2022-08-07T05:58:30;25.05;;;10.70;;
30874;SDS011;17581;43.222;27.924;2022-08-07T06:00:57;23.30;;;10.23;;
30874;SDS011;17581;43.222;27.924;2022-08-07T06:03:24;12.63;;;9.90;;
30874;SDS011;17581;43.222;27.924;2022-08-07T06:05:53;16.90;;;9.70;;
30874;SDS011;17581;43.222;27.924;2022-08-07T06:08:19;18.33;;;10.57;;
30874;SDS011;17581;43.222;27.924;2022-08-07T06:10:45;22.30;;;10.20;;
30874;SDS011;17581;43.222;27.924;2022-08-07T06:13:11;21.83;;;9.95;;
30874;SDS011;17581;43.222;27.924;2022-08-07T06:15:38;23.25;;;9.50;;
30874;SDS011;17581;43.222;27.924;2022-08-07T06:18:05;15.15;;;10.27;;
30874;SDS011;17581;43.222;27.924;2022-08-07T06:20:33;24.20;;;10.48;;
30874;SDS011;17581;43.222;27.924;2022-08-07T06:23:00;15.63;;;9.38;;
30874;SDS011;17581;43.222;27.924;2022-08-07T06:25:28;17.00;;;9.93;;
30874;SDS011;17581;43.222;27.924;2022-08-07T06:28:04;25.15;;;9.68;;
30874;SDS011;17581;43.222;27.924;2022-08-07T06:30:32;18.60;;;10.27;;
30874;SDS011;17581;43.222;27.924;2022-08-07T06:33:00;23.25;;;10.07;;
30874;SDS011;17581;43.222;27.924;2022-08-07T06:35:26;17.17;;;9.00;;
30874;SDS011;17581;43.222;27.924;2022-08-07T06:37:51;23.33;;;8.98;;
30874;SDS011;17581;43.222;27.924;2022-08-07T06:40:17;14.27;;;8.73;;
30874;SDS011;17581;43.222;27.924;2022-08-07T06:42:42;20.60;;;9.30;;
30874;SDS011;17581;43.222;27.924;2022-08-07T06:45:12;17.60;;;7.93;;
30874;SDS011;17581;43.222;27.924;2022-08-07T06:47:41;24.35;;;10.50;;
30874;SDS011;17581;43.222;27.924;2022-08-07T06:50:07;20.65;;;9.93;;
30874;SDS011;17581;43.222;27.924;2022-08-07T06:52:35;23.38;;;10.00;;
30874;SDS011;17581;43.222;27.924;2022-08-07T06:55:08;19.48;;;9.10;;
30874;SDS011;17581;43.222;27.924;2022-08-07T06:57:40;16.15;;;9.45;;
30874;SDS011;17581;43.222;27.924;2022-08-07T07:00:08;21.90;;;9.65;;
30874;SDS011;17581;43.222;27.924;2022-08-07T07:02:35;18.63;;;9.30;;
30874;SDS011;17581;43.222;27.924;2022-08-07T07:05:03;17.92;;;8.43;;
30874;SDS011;17581;43.222;27.924;2022-08-07T07:07:30;43.28;;;10.90;;
30874;SDS011;17581;43.222;27.924;2022-08-07T07:09:56;27.45;;;11.38;;
30874;SDS011;17581;43.222;27.924;2022-08-07T07:12:26;15.23;;;10.77;;
30874;SDS011;17581;43.222;27.924;2022-08-07T07:15:19;31.92;;;10.60;;
30874;SDS011;17581;43.222;27.924;2022-08-07T07:17:52;15.10;;;9.38;;
30874;SDS011;17581;43.222;27.924;2022-08-07T07:20:25;30.55;;;10.05;;
30874;SDS011;17581;43.222;27.924;2022-08-07T07:22:56;22.90;;;9.25;;
30874;SDS011;17581;43.222;27.924;2022-08-07T07:25:22;16.85;;;9.07;;
30874;SDS011;17581;43.222;27.924;2022-08-07T07:27:50;23.63;;;11.00;;
30874;SDS011;17581;43.222;27.924;2022-08-07T07:30:23;24.77;;;9.95;;
30874;SDS011;17581;43.222;27.924;2022-08-07T07:32:53;16.00;;;9.35;;
30874;SDS011;17581;43.222;27.924;2022-08-07T07:35:24;12.45;;;8.30;;
30874;SDS011;17581;43.222;27.924;2022-08-07T07:37:51;25.40;;;9.77;;
30874;SDS011;17581;43.222;27.924;2022-08-07T07:40:20;20.23;;;8.70;;
30874;SDS011;17581;43.222;27.924;2022-08-07T07:42:49;18.67;;;9.00;;
30874;SDS011;17581;43.222;27.924;2022-08-07T07:45:17;19.38;;;7.35;;
30874;SDS011;17581;43.222;27.924;2022-08-07T07:47:45;36.25;;;9.48;;
30874;SDS011;17581;43.222;27.924;2022-08-07T07:50:15;32.45;;;12.00;;
30874;SDS011;17581;43.222;27.924;2022-08-07T07:52:42;22.30;;;9.48;;
30874;SDS011;17581;43.222;27.924;2022-08-07T07:55:09;17.95;;;7.88;;
30874;SDS011;17581;43.222;27.924;2022-08-07T07:57:38;25.48;;;8.63;;
30874;SDS011;17581;43.222;27.924;2022-08-07T08:00:05;17.33;;;7.65;;
30874;SDS011;17581;43.222;27.924;2022-08-07T08:02:32;30.17;;;8.18;;
30874;SDS011;17581;43.222;27.924;2022-08-07T08:05:01;16.13;;;8.25;;
30874;SDS011;17581;43.222;27.924;2022-08-07T08:07:29;17.15;;;7.57;;
30874;SDS011;17581;43.222;27.924;2022-08-07T08:09:56;15.77;;;8.57;;
30874;SDS011;17581;43.222;27.924;2022-08-07T08:12:23;21.10;;;9.07;;
30874;SDS011;17581;43.222;27.924;2022-08-07T08:14:49;19.95;;;7.65;;
30874;SDS011;17581;43.222;27.924;2022-08-07T08:17:15;13.82;;;7.15;;
30874;SDS011;17581;43.222;27.924;2022-08-07T08:19:42;23.60;;;8.73;;
30874;SDS011;17581;43.222;27.924;2022-08-07T08:22:10;19.88;;;7.57;;
30874;SDS011;17581;43.222;27.924;2022-08-07T08:24:55;25.63;;;7.72;;
30874;SDS011;17581;43.222;27.924;2022-08-07T08:27:40;19.67;;;7.28;;
30874;SDS011;17581;43.222;27.924;2022-08-07T08:30:09;23.77;;;7.15;;
30874;SDS011;17581;43.222;27.924;2022-08-07T08:32:56;10.00;;;6.82;;
30874;SDS011;17581;43.222;27.924;2022-08-07T08:35:26;28.35;;;8.32;;
30874;SDS011;17581;43.222;27.924;2022-08-07T08:37:57;15.35;;;6.80;;
30874;SDS011;17581;43.222;27.924;2022-08-07T08:40:36;14.75;;;7.22;;
30874;SDS011;17581;43.222;27.924;2022-08-07T08:45:43;12.73;;;6.70;;
30874;SDS011;17581;43.222;27.924;2022-08-07T08:48:38;17.15;;;6.43;;
30874;SDS011;17581;43.222;27.924;2022-08-07T08:56:46;24.88;;;7.22;;
30874;SDS011;17581;43.222;27.924;2022-08-07T08:59:19;29.00;;;7.85;;
30874;SDS011;17581;43.222;27.924;2022-08-07T09:05:16;13.30;;;6.75;;
30874;SDS011;17581;43.222;27.924;2022-08-07T09:08:07;21.20;;;7.35;;
30874;SDS011;17581;43.222;27.924;2022-08-07T09:10:36;16.90;;;6.55;;
30874;SDS011;17581;43.222;27.924;2022-08-07T09:16:04;11.35;;;6.03;;
30874;SDS011;17581;43.222;27.924;2022-08-07T09:21:32;24.42;;;7.63;;
30874;SDS011;17581;43.222;27.924;2022-08-07T09:29:38;19.17;;;6.55;;
30874;SDS011;17581;43.222;27.924;2022-08-07T09:35:01;22.63;;;7.38;;
30874;SDS011;17581;43.222;27.924;2022-08-07T09:40:19;14.48;;;5.93;;
30874;SDS011;17581;43.222;27.924;2022-08-07T09:42:57;18.08;;;7.00;;
30874;SDS011;17581;43.222;27.924;2022-08-07T09:53:40;31.58;;;6.95;;
30874;SDS011;17581;43.222;27.924;2022-08-07T10:01:35;28.80;;;6.22;;
30874;SDS011;17581;43.222;27.924;2022-08-07T10:10:21;15.95;;;5.95;;
30874;SDS011;17581;43.222;27.924;2022-08-07T10:16:03;11.73;;;5.90;;
30874;SDS011;17581;43.222;27.924;2022-08-07T10:22:18;14.02;;;4.90;;
30874;SDS011;17581;43.222;27.924;2022-08-07T10:27:28;21.25;;;5.70;;
30874;SDS011;17581;43.222;27.924;2022-08-07T10:41:35;18.23;;;4.45;;
30874;SDS011;17581;43.222;27.924;2022-08-07T10:47:15;33.38;;;5.45;;
30874;SDS011;17581;43.222;27.924;2022-08-07T10:52:57;20.10;;;4.82;;
30874;SDS011;17581;43.222;27.924;2022-08-07T10:55:46;13.60;;;4.00;;
30874;SDS011;17581;43.222;27.924;2022-08-07T10:58:27;15.10;;;3.78;;
30874;SDS011;17581;43.222;27.924;2022-08-07T11:01:27;14.25;;;4.47;;
30874;SDS011;17581;43.222;27.924;2022-08-07T11:09:21;15.05;;;4.22;;
30874;SDS011;17581;43.222;27.924;2022-08-07T11:15:16;32.35;;;6.28;;
30874;SDS011;17581;43.222;27.924;2022-08-07T11:20:17;11.18;;;4.18;;
30874;SDS011;17581;43.222;27.924;2022-08-07T11:23:35;8.68;;;3.90;;
30874;SDS011;17581;43.222;27.924;2022-08-07T11:26:34;19.85;;;4.15;;
30874;SDS011;17581;43.222;27.924;2022-08-07T11:29:06;13.73;;;3.95;;
30874;SDS011;17581;43.222;27.924;2022-08-07T11:31:40;15.93;;;4.93;;
30874;SDS011;17581;43.222;27.924;2022-08-07T11:45:41;13.07;;;3.55;;
30874;SDS011;17581;43.222;27.924;2022-08-07T11:48:23;10.00;;;3.30;;
30874;SDS011;17581;43.222;27.924;2022-08-07T11:54:11;8.32;;;3.47;;
30874;SDS011;17581;43.222;27.924;2022-08-07T11:57:15;11.93;;;2.90;;
30874;SDS011;17581;43.222;27.924;2022-08-07T12:09:55;11.32;;;3.50;;
30874;SDS011;17581;43.222;27.924;2022-08-07T12:12:27;8.90;;;3.03;;
30874;SDS011;17581;43.222;27.924;2022-08-07T12:15:04;24.08;;;4.35;;
30874;SDS011;17581;43.222;27.924;2022-08-07T12:17:48;26.67;;;3.53;;
30874;SDS011;17581;43.222;27.924;2022-08-07T12:20:21;18.48;;;3.58;;
30874;SDS011;17581;43.222;27.924;2022-08-07T12:23:00;22.20;;;3.83;;
30874;SDS011;17581;43.222;27.924;2022-08-07T12:26:03;8.82;;;2.50;;
30874;SDS011;17581;43.222;27.924;2022-08-07T12:28:46;16.33;;;3.60;;
30874;SDS011;17581;43.222;27.924;2022-08-07T12:31:26;17.83;;;3.15;;
30874;SDS011;17581;43.222;27.924;2022-08-07T12:33:57;21.40;;;3.55;;
30874;SDS011;17581;43.222;27.924;2022-08-07T12:36:24;10.68;;;3.22;;
30874;SDS011;17581;43.222;27.924;2022-08-07T12:38:51;13.00;;;3.38;;
30874;SDS011;17581;43.222;27.924;2022-08-07T12:41:22;14.60;;;3.22;;
30874;SDS011;17581;43.222;27.924;2022-08-07T12:43:51;11.60;;;3.63;;
30874;SDS011;17581;43.222;27.924;2022-08-07T12:46:25;12.55;;;3.40;;
30874;SDS011;17581;43.222;27.924;2022-08-07T12:51:53;10.00;;;3.08;;
30874;SDS011;17581;43.222;27.924;2022-08-07T12:54:32;10.43;;;3.83;;
30874;SDS011;17581;43.222;27.924;2022-08-07T12:57:05;22.52;;;3.17;;
30874;SDS011;17581;43.222;27.924;2022-08-07T12:59:32;9.70;;;3.58;;
30874;SDS011;17581;43.222;27.924;2022-08-07T13:10:16;10.88;;;2.53;;
30874;SDS011;17581;43.222;27.924;2022-08-07T13:13:13;12.70;;;3.47;;
30874;SDS011;17581;43.222;27.924;2022-08-07T13:16:04;15.32;;;4.20;;
30874;SDS011;17581;43.222;27.924;2022-08-07T13:19:10;18.33;;;3.80;;
30874;SDS011;17581;43.222;27.924;2022-08-07T13:21:58;7.95;;;3.92;;
30874;SDS011;17581;43.222;27.924;2022-08-07T13:35:14;11.73;;;3.40;;
30874;SDS011;17581;43.222;27.924;2022-08-07T13:43:49;13.40;;;3.45;;
30874;SDS011;17581;43.222;27.924;2022-08-07T13:46:18;21.20;;;3.38;;
30874;SDS011;17581;43.222;27.924;2022-08-07T13:48:48;11.13;;;3.63;;
30874;SDS011;17581;43.222;27.924;2022-08-07T13:51:18;15.10;;;4.07;;
30874;SDS011;17581;43.222;27.924;2022-08-07T13:53:49;11.40;;;3.40;;
30874;SDS011;17581;43.222;27.924;2022-08-07T13:56:17;8.65;;;3.50;;
30874;SDS011;17581;43.222;27.924;2022-08-07T13:58:47;14.65;;;4.20;;
30874;SDS011;17581;43.222;27.924;2022-08-07T14:01:31;8.23;;;3.05;;
30874;SDS011;17581;43.222;27.924;2022-08-07T14:04:06;11.68;;;3.60;;
30874;SDS011;17581;43.222;27.924;2022-08-07T14:06:36;15.10;;;3.65;;
30874;SDS011;17581;43.222;27.924;2022-08-07T14:09:04;24.08;;;3.65;;
30874;SDS011;17581;43.222;27.924;2022-08-07T14:11:35;10.63;;;3.28;;
30874;SDS011;17581;43.222;27.924;2022-08-07T14:14:09;17.90;;;3.30;;
30874;SDS011;17581;43.222;27.924;2022-08-07T14:16:39;15.90;;;4.20;;
30874;SDS011;17581;43.222;27.924;2022-08-07T14:19:17;78.47;;;7.88;;
30874;SDS011;17581;43.222;27.924;2022-08-07T14:21:48;18.20;;;3.25;;
30874;SDS011;17581;43.222;27.924;2022-08-07T14:24:21;13.98;;;3.30;;
30874;SDS011;17581;43.222;27.924;2022-08-07T14:27:02;8.95;;;2.83;;
30874;SDS011;17581;43.222;27.924;2022-08-07T14:29:32;12.75;;;3.45;;
30874;SDS011;17581;43.222;27.924;2022-08-07T14:32:03;9.93;;;3.70;;
30874;SDS011;17581;43.222;27.924;2022-08-07T14:34:32;18.60;;;5.70;;
30874;SDS011;17581;43.222;27.924;2022-08-07T14:37:01;29.33;;;3.45;;
30874;SDS011;17581;43.222;27.924;2022-08-07T14:39:30;21.20;;;3.53;;
30874;SDS011;17581;43.222;27.924;2022-08-07T14:41:57;9.93;;;3.50;;
30874;SDS011;17581;43.222;27.924;2022-08-07T14:44:26;11.10;;;3.20;;
30874;SDS011;17581;43.222;27.924;2022-08-07T14:46:57;5.88;;;3.13;;
30874;SDS011;17581;43.222;27.924;2022-08-07T14:49:28;32.42;;;4.20;;
30874;SDS011;17581;43.222;27.924;2022-08-07T14:51:57;16.17;;;2.95;;
30874;SDS011;17581;43.222;27.924;2022-08-07T14:54:28;24.00;;;3.20;;
30874;SDS011;17581;43.222;27.924;2022-08-07T14:56:57;13.85;;;4.13;;
30874;SDS011;17581;43.222;27.924;2022-08-07T14:59:25;11.38;;;3.70;;
30874;SDS011;17581;43.222;27.924;2022-08-07T15:01:53;13.07;;;3.58;;
30874;SDS011;17581;43.222;27.924;2022-08-07T15:04:22;20.10;;;4.22;;
30874;SDS011;17581;43.222;27.924;2022-08-07T15:06:49;9.77;;;4.05;;
30874;SDS011;17581;43.222;27.924;2022-08-07T15:09:16;21.02;;;3.55;;
30874;SDS011;17581;43.222;27.924;2022-08-07T15:12:00;9.95;;;3.17;;
30874;SDS011;17581;43.222;27.924;2022-08-07T15:14:33;10.52;;;3.95;;
30874;SDS011;17581;43.222;27.924;2022-08-07T15:17:11;12.05;;;3.88;;
30874;SDS011;17581;43.222;27.924;2022-08-07T15:19:50;5.65;;;3.20;;
30874;SDS011;17581;43.222;27.924;2022-08-07T15:22:21;22.52;;;3.78;;
30874;SDS011;17581;43.222;27.924;2022-08-07T15:24:51;12.10;;;3.70;;
30874;SDS011;17581;43.222;27.924;2022-08-07T15:27:19;11.05;;;3.45;;
30874;SDS011;17581;43.222;27.924;2022-08-07T15:29:52;9.88;;;3.28;;
30874;SDS011;17581;43.222;27.924;2022-08-07T15:32:20;21.17;;;3.33;;
30874;SDS011;17581;43.222;27.924;2022-08-07T15:34:50;10.18;;;3.40;;
30874;SDS011;17581;43.222;27.924;2022-08-07T15:39:50;9.10;;;3.47;;
30874;SDS011;17581;43.222;27.924;2022-08-07T15:45:03;5.70;;;3.10;;
30874;SDS011;17581;43.222;27.924;2022-08-07T15:47:34;8.18;;;2.63;;
30874;SDS011;17581;43.222;27.924;2022-08-07T15:50:04;17.58;;;3.10;;
30874;SDS011;17581;43.222;27.924;2022-08-07T15:52:35;11.80;;;3.63;;
30874;SDS011;17581;43.222;27.924;2022-08-07T15:55:08;19.53;;;4.60;;
30874;SDS011;17581;43.222;27.924;2022-08-07T15:57:36;8.45;;;3.50;;
30874;SDS011;17581;43.222;27.924;2022-08-07T16:00:04;18.67;;;5.03;;
30874;SDS011;17581;43.222;27.924;2022-08-07T16:02:32;9.27;;;3.42;;
30874;SDS011;17581;43.222;27.924;2022-08-07T16:05:05;12.95;;;4.03;;
30874;SDS011;17581;43.222;27.924;2022-08-07T16:10:26;15.52;;;3.67;;
30874;SDS011;17581;43.222;27.924;2022-08-07T16:27:15;13.05;;;3.72;;
30874;SDS011;17581;43.222;27.924;2022-08-07T16:32:33;17.95;;;3.50;;
30874;SDS011;17581;43.222;27.924;2022-08-07T16:46:24;30.35;;;6.85;;
30874;SDS011;17581;43.222;27.924;2022-08-07T16:52:02;39.47;;;6.22;;
30874;SDS011;17581;43.222;27.924;2022-08-07T17:00:16;19.60;;;4.43;;
30874;SDS011;17581;43.222;27.924;2022-08-07T17:08:46;15.13;;;5.28;;
30874;SDS011;17581;43.222;27.924;2022-08-07T17:11:25;7.57;;;3.58;;
30874;SDS011;17581;43.222;27.924;2022-08-07T17:14:01;20.60;;;3.72;;
30874;SDS011;17581;43.222;27.924;2022-08-07T17:16:47;20.45;;;3.50;;
30874;SDS011;17581;43.222;27.924;2022-08-07T17:19:32;20.25;;;4.43;;
30874;SDS011;17581;43.222;27.924;2022-08-07T17:22:13;10.73;;;3.50;;
30874;SDS011;17581;43.222;27.924;2022-08-07T17:25:06;18.65;;;3.72;;
30874;SDS011;17581;43.222;27.924;2022-08-07T17:30:52;18.55;;;3.35;;
30874;SDS011;17581;43.222;27.924;2022-08-07T17:33:35;9.45;;;5.18;;
30874;SDS011;17581;43.222;27.924;2022-08-07T17:38:48;16.13;;;4.30;;
30874;SDS011;17581;43.222;27.924;2022-08-07T17:47:07;8.13;;;3.90;;
30874;SDS011;17581;43.222;27.924;2022-08-07T17:49:47;11.52;;;4.00;;
30874;SDS011;17581;43.222;27.924;2022-08-07T17:55:30;12.13;;;3.60;;
30874;SDS011;17581;43.222;27.924;2022-08-07T17:58:16;13.63;;;3.63;;
30874;SDS011;17581;43.222;27.924;2022-08-07T18:00:54;12.98;;;3.38;;
30874;SDS011;17581;43.222;27.924;2022-08-07T18:03:34;12.02;;;3.28;;
30874;SDS011;17581;43.222;27.924;2022-08-07T18:06:15;7.72;;;3.80;;
30874;SDS011;17581;43.222;27.924;2022-08-07T18:08:50;9.23;;;3.20;;
30874;SDS011;17581;43.222;27.924;2022-08-07T18:11:20;8.73;;;3.08;;
30874;SDS011;17581;43.222;27.924;2022-08-07T18:14:03;12.38;;;3.65;;
30874;SDS011;17581;43.222;27.924;2022-08-07T18:16:53;5.27;;;3.30;;